sensor_id;sensor_type;location;lat;lon;timestamp;P1;durP1;ratioP1;P2;durP2;ratioP2
71162;SDS011;58858;50.948;6.566;2023-02-08T00:04:52;14.00;;;7.45;;
71162;SDS011;58858;50.948;6.566;2023-02-08T00:14:53;15.07;;;8.88;;
71162;SDS011;58858;50.948;6.566;2023-02-08T00:24:54;16.02;;;8.98;;
71162;SDS011;58858;50.948;6.566;2023-02-08T00:34:55;13.18;;;8.13;;
71162;SDS011;58858;50.948;6.566;2023-02-08T00:44:56;13.55;;;8.40;;
71162;SDS011;58858;50.948;6.566;2023-02-08T00:54:57;13.45;;;7.78;;
71162;SDS011;58858;50.948;6.566;2023-02-08T01:04:58;13.00;;;7.90;;
71162;SDS011;58858;50.948;6.566;2023-02-08T01:14:59;14.93;;;8.82;;
71162;SDS011;58858;50.948;6.566;2023-02-08T01:25:01;13.75;;;7.72;;
71162;SDS011;58858;50.948;6.566;2023-02-08T01:35:03;15.75;;;9.13;;
71162;SDS011;58858;50.948;6.566;2023-02-08T01:55:27;12.23;;;7.40;;
71162;SDS011;58858;50.948;6.566;2023-02-08T02:05:37;12.65;;;8.05;;
71162;SDS011;58858;50.948;6.566;2023-02-08T02:15:43;11.60;;;7.32;;
71162;SDS011;58858;50.948;6.566;2023-02-08T02:26:05;13.50;;;8.25;;
71162;SDS011;58858;50.948;6.566;2023-02-08T02:36:44;12.88;;;7.38;;
71162;SDS011;58858;50.948;6.566;2023-02-08T02:47:03;11.73;;;8.48;;
71162;SDS011;58858;50.948;6.566;2023-02-08T02:57:11;15.70;;;8.20;;
71162;SDS011;58858;50.948;6.566;2023-02-08T03:17:32;14.83;;;7.87;;
71162;SDS011;58858;50.948;6.566;2023-02-08T03:38:13;16.38;;;9.23;;
71162;SDS011;58858;50.948;6.566;2023-02-08T03:48:18;17.55;;;10.45;;
71162;SDS011;58858;50.948;6.566;2023-02-08T03:58:24;16.02;;;9.07;;
71162;SDS011;58858;50.948;6.566;2023-02-08T04:08:26;16.83;;;10.60;;
71162;SDS011;58858;50.948;6.566;2023-02-08T04:18:27;18.20;;;10.45;;
71162;SDS011;58858;50.948;6.566;2023-02-08T04:28:28;19.38;;;8.95;;
71162;SDS011;58858;50.948;6.566;2023-02-08T04:38:29;13.73;;;8.07;;
71162;SDS011;58858;50.948;6.566;2023-02-08T04:48:31;16.02;;;8.73;;
71162;SDS011;58858;50.948;6.566;2023-02-08T04:58:32;12.30;;;7.85;;
71162;SDS011;58858;50.948;6.566;2023-02-08T05:08:33;15.15;;;8.13;;
71162;SDS011;58858;50.948;6.566;2023-02-08T05:18:34;15.32;;;8.18;;
71162;SDS011;58858;50.948;6.566;2023-02-08T05:28:35;14.00;;;9.07;;
71162;SDS011;58858;50.948;6.566;2023-02-08T05:38:36;13.45;;;8.38;;
71162;SDS011;58858;50.948;6.566;2023-02-08T05:48:37;18.10;;;9.23;;
71162;SDS011;58858;50.948;6.566;2023-02-08T05:58:39;14.60;;;8.73;;
71162;SDS011;58858;50.948;6.566;2023-02-08T06:08:40;15.77;;;8.95;;
71162;SDS011;58858;50.948;6.566;2023-02-08T06:18:41;15.45;;;8.40;;
71162;SDS011;58858;50.948;6.566;2023-02-08T06:28:42;18.17;;;10.27;;
71162;SDS011;58858;50.948;6.566;2023-02-08T06:38:43;19.80;;;8.15;;
71162;SDS011;58858;50.948;6.566;2023-02-08T06:48:44;21.13;;;9.48;;
71162;SDS011;58858;50.948;6.566;2023-02-08T06:58:45;15.70;;;8.82;;
71162;SDS011;58858;50.948;6.566;2023-02-08T07:08:46;15.55;;;8.85;;
71162;SDS011;58858;50.948;6.566;2023-02-08T07:18:47;15.20;;;9.23;;
71162;SDS011;58858;50.948;6.566;2023-02-08T07:28:49;16.70;;;9.38;;
71162;SDS011;58858;50.948;6.566;2023-02-08T07:38:50;16.77;;;9.77;;
71162;SDS011;58858;50.948;6.566;2023-02-08T07:48:51;19.13;;;9.25;;
71162;SDS011;58858;50.948;6.566;2023-02-08T07:58:55;15.37;;;8.83;;
71162;SDS011;58858;50.948;6.566;2023-02-08T08:08:56;18.83;;;10.60;;
71162;SDS011;58858;50.948;6.566;2023-02-08T08:18:57;13.52;;;8.43;;
71162;SDS011;58858;50.948;6.566;2023-02-08T08:28:58;14.65;;;9.10;;
71162;SDS011;58858;50.948;6.566;2023-02-08T08:38:59;17.02;;;10.00;;
71162;SDS011;58858;50.948;6.566;2023-02-08T08:49:00;16.00;;;9.30;;
71162;SDS011;58858;50.948;6.566;2023-02-08T08:59:01;12.45;;;8.45;;
71162;SDS011;58858;50.948;6.566;2023-02-08T09:09:02;12.40;;;7.05;;
71162;SDS011;58858;50.948;6.566;2023-02-08T09:19:04;13.23;;;7.68;;
71162;SDS011;58858;50.948;6.566;2023-02-08T09:29:06;14.63;;;8.55;;
71162;SDS011;58858;50.948;6.566;2023-02-08T09:39:15;13.90;;;7.85;;
71162;SDS011;58858;50.948;6.566;2023-02-08T09:49:19;11.50;;;6.80;;
71162;SDS011;58858;50.948;6.566;2023-02-08T09:59:25;15.23;;;7.13;;
71162;SDS011;58858;50.948;6.566;2023-02-08T10:09:28;7.82;;;5.45;;
71162;SDS011;58858;50.948;6.566;2023-02-08T10:19:33;9.35;;;5.97;;
71162;SDS011;58858;50.948;6.566;2023-02-08T10:50:20;11.88;;;7.20;;
71162;SDS011;58858;50.948;6.566;2023-02-08T11:00:29;12.70;;;6.80;;
71162;SDS011;58858;50.948;6.566;2023-02-08T11:10:31;8.30;;;5.32;;
71162;SDS011;58858;50.948;6.566;2023-02-08T11:20:34;8.50;;;4.55;;
71162;SDS011;58858;50.948;6.566;2023-02-08T11:30:39;7.35;;;4.53;;
71162;SDS011;58858;50.948;6.566;2023-02-08T11:40:43;8.80;;;5.78;;
71162;SDS011;58858;50.948;6.566;2023-02-08T11:50:45;6.93;;;3.85;;
71162;SDS011;58858;50.948;6.566;2023-02-08T12:01:03;8.77;;;3.97;;
71162;SDS011;58858;50.948;6.566;2023-02-08T12:11:07;8.73;;;3.87;;
71162;SDS011;58858;50.948;6.566;2023-02-08T12:52:25;6.05;;;4.35;;
71162;SDS011;58858;50.948;6.566;2023-02-08T13:02:34;8.43;;;4.28;;
71162;SDS011;58858;50.948;6.566;2023-02-08T13:12:45;5.88;;;3.50;;
71162;SDS011;58858;50.948;6.566;2023-02-08T13:22:48;5.43;;;3.72;;
71162;SDS011;58858;50.948;6.566;2023-02-08T13:32:50;6.65;;;3.50;;
71162;SDS011;58858;50.948;6.566;2023-02-08T13:43:15;4.07;;;2.80;;
71162;SDS011;58858;50.948;6.566;2023-02-08T14:03:38;5.70;;;3.30;;
71162;SDS011;58858;50.948;6.566;2023-02-08T14:24:03;7.28;;;3.08;;
71162;SDS011;58858;50.948;6.566;2023-02-08T14:34:06;9.07;;;2.60;;
71162;SDS011;58858;50.948;6.566;2023-02-08T14:54:40;3.22;;;2.33;;
71162;SDS011;58858;50.948;6.566;2023-02-08T15:04:46;4.30;;;2.38;;
71162;SDS011;58858;50.948;6.566;2023-02-08T15:14:48;4.57;;;3.20;;
71162;SDS011;58858;50.948;6.566;2023-02-08T15:25:00;4.15;;;2.55;;
71162;SDS011;58858;50.948;6.566;2023-02-08T15:35:04;4.72;;;2.92;;
71162;SDS011;58858;50.948;6.566;2023-02-08T15:45:18;5.47;;;3.17;;
71162;SDS011;58858;50.948;6.566;2023-02-08T15:55:21;6.15;;;3.05;;
71162;SDS011;58858;50.948;6.566;2023-02-08T16:05:24;6.10;;;3.92;;
71162;SDS011;58858;50.948;6.566;2023-02-08T16:15:36;8.98;;;3.75;;
71162;SDS011;58858;50.948;6.566;2023-02-08T16:25:45;5.90;;;3.25;;
71162;SDS011;58858;50.948;6.566;2023-02-08T16:35:48;8.90;;;4.47;;
71162;SDS011;58858;50.948;6.566;2023-02-08T16:56:10;8.25;;;4.57;;
71162;SDS011;58858;50.948;6.566;2023-02-08T17:06:26;7.47;;;4.28;;
71162;SDS011;58858;50.948;6.566;2023-02-08T17:16:30;8.75;;;2.75;;
71162;SDS011;58858;50.948;6.566;2023-02-08T17:26:36;7.50;;;4.78;;
71162;SDS011;58858;50.948;6.566;2023-02-08T17:36:40;26.48;;;12.85;;
71162;SDS011;58858;50.948;6.566;2023-02-08T17:46:41;31.95;;;11.00;;
71162;SDS011;58858;50.948;6.566;2023-02-08T17:56:42;11.85;;;6.38;;
71162;SDS011;58858;50.948;6.566;2023-02-08T18:06:43;9.35;;;5.10;;
71162;SDS011;58858;50.948;6.566;2023-02-08T18:16:44;6.50;;;4.30;;
71162;SDS011;58858;50.948;6.566;2023-02-08T18:26:45;8.18;;;4.85;;
71162;SDS011;58858;50.948;6.566;2023-02-08T18:36:46;8.32;;;4.68;;
71162;SDS011;58858;50.948;6.566;2023-02-08T18:46:47;9.02;;;5.30;;
71162;SDS011;58858;50.948;6.566;2023-02-08T18:56:50;11.43;;;5.43;;
71162;SDS011;58858;50.948;6.566;2023-02-08T19:06:53;12.40;;;6.20;;
71162;SDS011;58858;50.948;6.566;2023-02-08T19:16:54;9.80;;;5.57;;
71162;SDS011;58858;50.948;6.566;2023-02-08T19:26:55;9.50;;;5.32;;
71162;SDS011;58858;50.948;6.566;2023-02-08T19:36:56;13.70;;;6.43;;
71162;SDS011;58858;50.948;6.566;2023-02-08T19:46:57;10.68;;;5.85;;
71162;SDS011;58858;50.948;6.566;2023-02-08T19:57:00;11.82;;;5.70;;
71162;SDS011;58858;50.948;6.566;2023-02-08T20:07:01;12.25;;;6.43;;
71162;SDS011;58858;50.948;6.566;2023-02-08T20:17:03;10.30;;;5.70;;
71162;SDS011;58858;50.948;6.566;2023-02-08T20:27:04;12.23;;;5.82;;
71162;SDS011;58858;50.948;6.566;2023-02-08T20:37:05;9.50;;;5.57;;
71162;SDS011;58858;50.948;6.566;2023-02-08T20:47:06;11.40;;;6.03;;
71162;SDS011;58858;50.948;6.566;2023-02-08T20:57:09;11.15;;;6.63;;
71162;SDS011;58858;50.948;6.566;2023-02-08T21:07:20;20.48;;;8.30;;
71162;SDS011;58858;50.948;6.566;2023-02-08T21:17:21;16.92;;;9.48;;
71162;SDS011;58858;50.948;6.566;2023-02-08T21:27:22;9.65;;;5.78;;
71162;SDS011;58858;50.948;6.566;2023-02-08T21:37:24;9.65;;;5.57;;
71162;SDS011;58858;50.948;6.566;2023-02-08T21:47:25;10.00;;;4.95;;
71162;SDS011;58858;50.948;6.566;2023-02-08T21:57:27;9.82;;;5.30;;
71162;SDS011;58858;50.948;6.566;2023-02-08T22:07:38;9.90;;;5.80;;
71162;SDS011;58858;50.948;6.566;2023-02-08T22:17:50;13.07;;;6.88;;
71162;SDS011;58858;50.948;6.566;2023-02-08T22:27:52;9.70;;;5.50;;
71162;SDS011;58858;50.948;6.566;2023-02-08T22:37:53;11.93;;;6.57;;
71162;SDS011;58858;50.948;6.566;2023-02-08T22:47:54;10.98;;;6.13;;
71162;SDS011;58858;50.948;6.566;2023-02-08T22:57:55;13.63;;;6.53;;
71162;SDS011;58858;50.948;6.566;2023-02-08T23:07:56;16.48;;;6.55;;
71162;SDS011;58858;50.948;6.566;2023-02-08T23:17:57;9.57;;;5.70;;
71162;SDS011;58858;50.948;6.566;2023-02-08T23:27:59;13.05;;;6.18;;
71162;SDS011;58858;50.948;6.566;2023-02-08T23:38:00;12.23;;;6.80;;
71162;SDS011;58858;50.948;6.566;2023-02-08T23:48:01;12.15;;;7.28;;
71162;SDS011;58858;50.948;6.566;2023-02-08T23:58:02;11.73;;;5.80;;
